createdAt,value
2018-11-12T00:02:33.217Z,8.20
2018-11-12T00:05:08.264Z,7.10
2018-11-12T00:07:43.046Z,7.57
2018-11-12T00:10:18.152Z,8.10
2018-11-12T00:12:53.274Z,8.30
2018-11-12T00:15:28.084Z,7.43
2018-11-12T00:18:03.150Z,8.23
2018-11-12T00:20:38.195Z,7.50
2018-11-12T00:23:13.089Z,7.27
2018-11-12T00:25:47.954Z,7.10
2018-11-12T00:28:22.750Z,8.07
2018-11-12T00:30:57.748Z,7.20
2018-11-12T00:33:32.661Z,6.67
2018-11-12T00:36:07.573Z,7.27
2018-11-12T00:38:42.704Z,6.80
2018-11-12T00:41:17.752Z,6.87
2018-11-12T00:43:52.612Z,6.70
2018-11-12T00:46:27.822Z,6.03
2018-11-12T00:49:02.644Z,5.80
2018-11-12T00:51:37.420Z,6.07
2018-11-12T00:54:12.470Z,6.43
2018-11-12T00:56:47.451Z,5.77
2018-11-12T00:59:22.324Z,6.37
2018-11-12T01:01:57.821Z,5.67
2018-11-12T01:04:32.983Z,6.13
2018-11-12T01:07:07.830Z,6.80
2018-11-12T01:09:42.488Z,6.93
2018-11-12T01:12:17.487Z,6.20
2018-11-12T01:14:52.298Z,5.40
2018-11-12T01:17:27.108Z,6.13
2018-11-12T01:20:02.131Z,6.17
2018-11-12T01:22:36.956Z,6.90
2018-11-12T01:25:12.663Z,5.07
2018-11-12T01:27:47.577Z,5.17
2018-11-12T01:30:22.339Z,6.03
2018-11-12T01:32:57.228Z,5.07
2018-11-12T01:35:32.044Z,5.10
2018-11-12T01:38:06.859Z,4.67
2018-11-12T01:40:41.812Z,5.30
2018-11-12T01:43:16.618Z,5.37
2018-11-12T01:45:52.166Z,5.07
2018-11-12T01:48:27.117Z,5.10
2018-11-12T01:51:02.177Z,4.60
2018-11-12T01:53:37.218Z,4.63
2018-11-12T01:56:12.016Z,5.00
2018-11-12T01:58:47.060Z,5.53
2018-11-12T02:01:22.148Z,5.37
2018-11-12T02:03:56.975Z,5.20
2018-11-12T02:06:31.767Z,5.53
2018-11-12T02:09:09.362Z,4.70
2018-11-12T02:11:44.040Z,4.50
2018-11-12T02:14:18.806Z,4.83
2018-11-12T02:16:53.551Z,4.57
2018-11-12T02:19:28.396Z,4.80
2018-11-12T02:22:03.386Z,4.13
2018-11-12T02:24:38.219Z,5.20
2018-11-12T02:27:12.943Z,5.23
2018-11-12T02:29:47.941Z,4.40
2018-11-12T02:32:22.970Z,3.90
2018-11-12T02:34:58.021Z,4.50
2018-11-12T02:37:32.999Z,4.30
2018-11-12T02:40:10.577Z,4.90
2018-11-12T02:42:45.475Z,4.30
2018-11-12T02:45:20.331Z,4.43
2018-11-12T02:47:55.211Z,4.60
2018-11-12T02:50:30.185Z,4.50
2018-11-12T02:53:05.573Z,4.00
2018-11-12T02:55:40.460Z,4.70
2018-11-12T02:58:15.473Z,4.17
2018-11-12T03:00:50.268Z,4.67
2018-11-12T03:03:19.580Z,4.20
2018-11-12T03:05:49.121Z,4.30
2018-11-12T03:08:18.423Z,4.53
2018-11-12T03:10:47.755Z,4.03
2018-11-12T03:13:17.076Z,4.73
2018-11-12T03:15:46.403Z,4.20
2018-11-12T03:18:15.941Z,4.08
2018-11-12T03:20:45.264Z,4.87
2018-11-12T03:23:14.608Z,3.80
2018-11-12T03:25:44.191Z,4.10
2018-11-12T03:28:13.760Z,4.47
2018-11-12T03:30:43.329Z,3.83
2018-11-12T03:33:12.646Z,4.70
2018-11-12T03:35:41.809Z,4.17
2018-11-12T03:38:11.208Z,4.70
2018-11-12T03:40:41.635Z,3.83
2018-11-12T03:43:10.942Z,4.53
2018-11-12T03:45:40.526Z,3.62
2018-11-12T03:48:09.906Z,3.87
2018-11-12T03:50:39.493Z,3.50
2018-11-12T03:53:08.825Z,4.13
2018-11-12T03:55:38.189Z,3.22
2018-11-12T03:58:07.507Z,3.98
2018-11-12T04:00:36.860Z,3.70
2018-11-12T04:03:06.175Z,3.83
2018-11-12T04:05:35.515Z,3.50
2018-11-12T04:08:05.094Z,4.20
2018-11-12T04:10:34.652Z,3.50
2018-11-12T04:13:04.291Z,4.23
2018-11-12T04:15:33.629Z,2.90
2018-11-12T04:18:03.152Z,3.58
2018-11-12T04:20:32.467Z,3.47
2018-11-12T04:23:02.805Z,3.50
2018-11-12T04:25:33.748Z,3.83
2018-11-12T04:28:03.297Z,2.93
2018-11-12T04:30:33.058Z,3.43
2018-11-12T04:33:02.884Z,3.40
2018-11-12T04:35:32.438Z,3.40
2018-11-12T04:38:01.771Z,3.75
2018-11-12T04:40:30.861Z,3.20
2018-11-12T04:42:59.988Z,2.97
2018-11-12T04:45:29.427Z,3.98
2018-11-12T04:47:58.673Z,3.50
2018-11-12T04:50:28.583Z,3.00
2018-11-12T04:52:58.399Z,3.50
2018-11-12T04:55:27.809Z,3.30
2018-11-12T04:57:57.085Z,3.17
2018-11-12T05:00:27.456Z,3.10
2018-11-12T05:02:56.577Z,3.33
2018-11-12T05:05:26.964Z,2.70
2018-11-12T05:07:56.280Z,3.37
2018-11-12T05:10:27.413Z,3.13
2018-11-12T05:12:56.912Z,3.23
2018-11-12T05:15:26.844Z,3.10
2018-11-12T05:17:56.388Z,3.83
2018-11-12T05:20:28.298Z,3.90
2018-11-12T05:22:57.937Z,3.30
2018-11-12T05:25:27.282Z,2.90
2018-11-12T05:27:56.398Z,3.50
2018-11-12T05:30:27.835Z,2.83
2018-11-12T05:32:58.072Z,3.00
2018-11-12T05:35:28.703Z,3.50
2018-11-12T05:37:58.288Z,3.50
2018-11-12T05:40:28.855Z,3.30
2018-11-12T05:42:58.156Z,3.10
2018-11-12T05:45:28.360Z,3.10
2018-11-12T05:47:57.487Z,3.27
2018-11-12T05:50:29.000Z,3.20
2018-11-12T05:53:00.593Z,3.07
2018-11-12T05:55:30.487Z,3.73
2018-11-12T05:58:00.117Z,3.00
2018-11-12T06:00:31.563Z,3.27
2018-11-12T06:03:01.345Z,2.50
2018-11-12T06:05:31.255Z,2.90
2018-11-12T06:08:00.558Z,2.60
2018-11-12T06:10:31.072Z,2.65
2018-11-12T06:13:00.391Z,2.37
2018-11-12T06:15:29.731Z,2.47
2018-11-12T06:17:59.045Z,2.83
2018-11-12T06:20:30.428Z,2.50
2018-11-12T06:22:59.771Z,2.77
2018-11-12T06:25:30.564Z,3.40
2018-11-12T06:28:00.093Z,3.73
2018-11-12T06:30:32.651Z,2.98
2018-11-12T06:33:02.189Z,2.77
2018-11-12T06:35:31.762Z,2.83
2018-11-12T06:38:01.318Z,2.37
2018-11-12T06:40:30.667Z,3.40
2018-11-12T06:42:59.789Z,2.83
2018-11-12T06:45:30.660Z,2.72
2018-11-12T06:48:00.754Z,2.60
2018-11-12T06:50:31.560Z,2.70
2018-11-12T06:53:01.723Z,2.93
2018-11-12T06:55:31.200Z,2.00
2018-11-12T06:58:00.552Z,2.67
2018-11-12T07:00:32.482Z,2.33
2018-11-12T07:03:02.057Z,2.60
2018-11-12T07:05:31.816Z,2.37
2018-11-12T07:08:01.165Z,2.30
2018-11-12T07:10:30.699Z,3.07
2018-11-12T07:13:00.682Z,2.20
2018-11-12T07:15:30.238Z,2.12
2018-11-12T07:17:59.611Z,2.80
2018-11-12T07:20:29.930Z,2.90
2018-11-12T07:22:59.504Z,3.40
2018-11-12T07:25:29.915Z,5.33
2018-11-12T07:27:59.851Z,6.80
2018-11-12T07:30:29.424Z,8.50
2018-11-12T07:32:59.321Z,7.20
2018-11-12T07:35:28.563Z,7.87
2018-11-12T07:37:58.234Z,6.62
2018-11-12T07:40:27.316Z,7.10
2018-11-12T07:42:56.416Z,6.60
2018-11-12T07:45:27.056Z,8.10
2018-11-12T07:47:57.187Z,6.50
2018-11-12T07:50:27.815Z,5.63
2018-11-12T07:52:57.160Z,6.60
2018-11-12T07:55:27.843Z,6.17
2018-11-12T07:57:58.365Z,6.43
2018-11-12T08:00:29.012Z,6.70
2018-11-12T08:03:03.553Z,6.30
2018-11-12T08:05:33.312Z,5.37
2018-11-12T08:08:02.633Z,7.00
2018-11-12T08:10:31.960Z,6.87
2018-11-12T08:13:01.286Z,7.43
2018-11-12T08:15:30.382Z,6.97
2018-11-12T08:17:59.752Z,7.00
2018-11-12T08:20:30.045Z,7.10
2018-11-12T08:22:59.552Z,7.53
2018-11-12T08:25:28.653Z,13.13
2018-11-12T08:27:57.993Z,17.87
2018-11-12T08:30:28.382Z,19.30
2018-11-12T08:32:59.518Z,21.73
2018-11-12T08:35:28.804Z,20.00
2018-11-12T08:37:58.576Z,19.43
2018-11-12T08:40:28.977Z,19.90
2018-11-12T08:42:58.220Z,17.00
2018-11-12T08:45:27.427Z,15.40
2018-11-12T08:47:57.582Z,17.10
2018-11-12T08:50:27.612Z,17.23
2018-11-12T08:52:57.726Z,14.83
2018-11-12T08:55:28.627Z,15.27
2018-11-12T08:57:59.513Z,13.90
2018-11-12T09:00:29.115Z,15.00
2018-11-12T09:02:58.235Z,13.70
2018-11-12T09:05:29.144Z,11.73
2018-11-12T09:07:59.767Z,11.20
2018-11-12T09:10:30.932Z,9.50
2018-11-12T09:13:00.293Z,10.00
2018-11-12T09:15:29.932Z,8.70
2018-11-12T09:17:59.740Z,8.00
2018-11-12T09:20:29.372Z,8.03
2018-11-12T09:22:58.852Z,8.93
2018-11-12T09:25:28.753Z,8.47
2018-11-12T09:27:58.284Z,7.20
2018-11-12T09:32:31.793Z,8.50
2018-11-12T09:35:01.608Z,6.67
2018-11-12T09:37:31.367Z,9.20
2018-11-12T09:40:00.446Z,8.07
2018-11-12T09:42:29.850Z,8.60
2018-11-12T09:44:59.104Z,8.20
2018-11-12T09:47:28.705Z,8.40
2018-11-12T09:49:58.027Z,8.13
2018-11-12T09:52:27.343Z,7.50
2018-11-12T09:54:56.695Z,7.90
2018-11-12T09:57:26.020Z,8.43
2018-11-12T09:59:55.144Z,7.63
2018-11-12T10:02:25.832Z,7.73
2018-11-12T10:04:55.349Z,8.73
2018-11-12T10:07:24.467Z,7.60
2018-11-12T10:09:54.303Z,8.60
2018-11-12T10:12:23.607Z,8.50
2018-11-12T10:14:54.849Z,8.20
2018-11-12T10:17:25.411Z,7.83
2018-11-12T10:19:52.089Z,9.17
2018-11-12T10:22:21.500Z,7.83
2018-11-12T10:24:51.503Z,7.93
2018-11-12T10:27:20.803Z,7.27
2018-11-12T10:29:49.907Z,8.03
2018-11-12T10:32:19.269Z,8.37
2018-11-12T10:34:48.853Z,7.03
2018-11-12T10:37:18.435Z,7.60
2018-11-12T10:39:47.751Z,7.80
2018-11-12T10:42:17.125Z,7.10
2018-11-12T10:44:46.677Z,9.53
2018-11-12T10:47:16.330Z,7.23
2018-11-12T10:49:46.124Z,7.95
2018-11-12T10:52:15.504Z,7.97
2018-11-12T10:54:44.926Z,9.10
2018-11-12T10:57:14.161Z,9.13
2018-11-12T10:59:43.755Z,8.25
2018-11-12T11:02:18.783Z,7.80
2018-11-12T11:04:47.865Z,7.27
2018-11-12T11:07:17.174Z,7.90
2018-11-12T11:09:46.527Z,5.10
2018-11-12T11:12:15.826Z,5.90
2018-11-12T11:14:45.184Z,6.17
2018-11-12T11:17:14.520Z,5.90
2018-11-12T11:19:43.907Z,5.60
2018-11-12T11:22:13.458Z,6.33
2018-11-12T11:24:42.787Z,5.90
2018-11-12T11:27:11.889Z,6.23
2018-11-12T11:29:41.003Z,6.03
2018-11-12T11:32:10.352Z,6.20
2018-11-12T11:34:39.700Z,5.30
2018-11-12T11:37:08.991Z,5.47
2018-11-12T11:39:38.338Z,5.20
2018-11-12T11:42:07.660Z,5.10
2018-11-12T11:44:36.764Z,5.70
2018-11-12T11:47:06.126Z,5.30
2018-11-12T11:49:35.643Z,4.47
2018-11-12T11:52:05.763Z,4.70
2018-11-12T11:54:35.145Z,5.20
2018-11-12T11:57:04.928Z,4.57
2018-11-12T11:59:34.501Z,4.10
2018-11-12T12:02:03.846Z,5.07
2018-11-12T12:04:33.763Z,4.63
2018-11-12T12:07:03.075Z,4.30
2018-11-12T12:09:32.441Z,4.23
2018-11-12T12:12:02.876Z,4.00
2018-11-12T12:14:32.215Z,4.33
2018-11-12T12:17:02.090Z,4.30
2018-11-12T12:19:31.299Z,4.40
2018-11-12T12:22:00.399Z,4.13
2018-11-12T12:24:29.526Z,4.60
2018-11-12T12:26:59.224Z,3.20
2018-11-12T12:29:28.757Z,3.50
2018-11-12T12:31:58.071Z,4.13
2018-11-12T12:34:27.174Z,4.03
2018-11-12T12:36:56.442Z,4.22
2018-11-12T12:39:25.580Z,4.13
2018-11-12T12:41:54.687Z,4.07
2018-11-12T12:44:23.880Z,3.43
2018-11-12T12:46:52.911Z,3.83
2018-11-12T12:49:22.326Z,3.43
2018-11-12T12:51:51.581Z,3.77
2018-11-12T12:54:20.686Z,4.53
2018-11-12T12:56:50.196Z,4.00
2018-11-12T12:59:19.307Z,4.53
2018-11-12T13:01:49.225Z,4.70
2018-11-12T13:04:18.886Z,4.63
2018-11-12T13:06:48.223Z,4.27
2018-11-12T13:09:17.304Z,4.10
2018-11-12T13:11:46.405Z,4.30
2018-11-12T13:14:16.081Z,4.05
2018-11-12T13:16:45.687Z,4.20
2018-11-12T13:19:15.295Z,4.20
2018-11-12T13:21:44.916Z,4.20
2018-11-12T13:24:14.101Z,4.13
2018-11-12T13:26:43.210Z,3.80
2018-11-12T13:29:12.551Z,3.70
2018-11-12T13:31:41.870Z,3.50
2018-11-12T13:34:11.226Z,3.80
2018-11-12T13:36:40.537Z,3.80
2018-11-12T13:39:10.708Z,3.60
2018-11-12T13:41:40.714Z,3.00
2018-11-12T13:44:10.282Z,3.80
2018-11-12T13:46:56.364Z,2.95
2018-11-12T13:49:25.466Z,3.08
2018-11-12T13:51:54.574Z,3.00
2018-11-12T13:54:23.669Z,3.10
2018-11-12T13:56:52.762Z,3.87
2018-11-12T13:59:21.858Z,3.20
2018-11-12T14:01:51.162Z,3.50
2018-11-12T14:04:20.437Z,4.03
2018-11-12T14:06:49.515Z,3.60
2018-11-12T14:09:19.047Z,3.30
2018-11-12T14:11:48.366Z,3.27
2018-11-12T14:14:17.916Z,3.13
2018-11-12T14:16:47.572Z,3.17
2018-11-12T14:19:16.859Z,3.77
2018-11-12T14:21:46.104Z,3.47
2018-11-12T14:24:15.296Z,3.63
2018-11-12T14:26:44.593Z,3.83
2018-11-12T14:29:13.925Z,3.37
2018-11-12T14:31:43.461Z,3.00
2018-11-12T14:34:12.775Z,3.10
2018-11-12T14:36:42.096Z,2.53
2018-11-12T14:39:11.664Z,2.60
2018-11-12T14:41:40.971Z,2.97
2018-11-12T14:44:10.309Z,2.70
2018-11-12T14:46:39.612Z,2.80
2018-11-12T14:49:08.709Z,2.70
2018-11-12T14:51:38.564Z,2.53
2018-11-12T14:54:07.666Z,2.13
2018-11-12T14:56:36.988Z,2.60
2018-11-12T14:59:06.299Z,2.72
2018-11-12T15:01:36.917Z,2.25
2018-11-12T15:04:06.405Z,3.00
2018-11-12T15:06:35.745Z,2.30
2018-11-12T15:09:08.395Z,2.77
2018-11-12T15:11:38.168Z,2.73
2018-11-12T15:14:08.323Z,2.90
2018-11-12T15:16:38.070Z,2.30
2018-11-12T15:19:07.689Z,2.10
2018-11-12T15:21:36.993Z,2.63
2018-11-12T15:24:06.127Z,2.77
2018-11-12T15:26:35.222Z,2.27
2018-11-12T15:29:04.953Z,2.70
2018-11-12T15:31:34.259Z,2.17
2018-11-12T15:34:03.585Z,2.60
2018-11-12T15:36:33.265Z,2.40
2018-11-12T15:39:03.533Z,2.10
2018-11-12T15:41:32.834Z,2.30
2018-11-12T15:44:01.952Z,2.00
2018-11-12T15:46:31.037Z,2.33
2018-11-12T15:49:00.375Z,1.90
2018-11-12T15:51:30.917Z,2.90
2018-11-12T15:54:00.464Z,2.33
2018-11-12T15:56:29.817Z,2.50
2018-11-12T15:58:59.173Z,1.97
2018-11-12T16:01:29.337Z,2.00
2018-11-12T16:03:58.685Z,2.30
2018-11-12T16:06:28.008Z,2.10
2018-11-12T16:08:57.792Z,2.00
2018-11-12T16:11:27.329Z,2.50
2018-11-12T16:13:56.640Z,2.70
2018-11-12T16:16:25.744Z,3.03
2018-11-12T16:18:55.101Z,3.33
2018-11-12T16:21:24.396Z,2.13
2018-11-12T16:23:53.723Z,2.57
2018-11-12T16:26:23.482Z,2.70
2018-11-12T16:28:52.833Z,2.33
2018-11-12T16:31:22.126Z,2.50
2018-11-12T16:33:51.603Z,1.90
2018-11-12T16:36:20.965Z,2.23
2018-11-12T16:38:50.507Z,2.70
2018-11-12T16:41:20.738Z,1.70
2018-11-12T16:43:49.862Z,2.20
2018-11-12T16:46:19.203Z,1.87
2018-11-12T16:48:49.015Z,1.98
2018-11-12T16:51:18.124Z,1.67
2018-11-12T16:53:47.456Z,2.10
2018-11-12T16:56:16.798Z,1.67
2018-11-12T16:58:45.892Z,1.90
2018-11-12T17:01:15.041Z,1.70
2018-11-12T17:03:44.729Z,2.10
2018-11-12T17:06:14.292Z,1.87
2018-11-12T17:08:43.600Z,1.70
2018-11-12T17:11:12.804Z,1.87
2018-11-12T17:13:41.823Z,1.93
2018-11-12T17:16:11.572Z,1.60
2018-11-12T17:18:40.917Z,1.70
2018-11-12T17:21:10.490Z,2.23
2018-11-12T17:23:40.044Z,2.57
2018-11-12T17:26:09.803Z,1.55
2018-11-12T17:28:39.372Z,1.70
2018-11-12T17:31:09.382Z,2.00
2018-11-12T17:33:38.716Z,1.77
2018-11-12T17:36:07.821Z,1.53
2018-11-12T17:38:37.163Z,1.60
2018-11-12T17:41:06.684Z,1.30
2018-11-12T17:43:36.023Z,1.30
2018-11-12T17:46:05.332Z,1.60
2018-11-12T17:48:34.665Z,1.43
2018-11-12T17:51:03.989Z,1.62
2018-11-12T17:53:33.271Z,1.77
2018-11-12T17:56:02.602Z,1.40
2018-11-12T17:58:33.132Z,1.67
2018-11-12T18:01:02.241Z,1.70
2018-11-12T18:03:31.569Z,1.87
2018-11-12T18:06:00.897Z,1.60
2018-11-12T18:08:30.315Z,1.50
2018-11-12T18:10:59.652Z,1.10
2018-11-12T18:13:28.992Z,1.47
2018-11-12T18:15:58.341Z,1.23
2018-11-12T18:18:27.642Z,1.53
2018-11-12T18:20:56.977Z,1.40
2018-11-12T18:23:26.517Z,1.53
2018-11-12T18:25:56.061Z,1.40
2018-11-12T18:28:25.362Z,1.37
2018-11-12T18:30:54.772Z,2.30
2018-11-12T18:33:23.999Z,1.23
2018-11-12T18:35:53.078Z,1.70
2018-11-12T18:38:22.184Z,1.23
2018-11-12T18:40:51.303Z,1.30
2018-11-12T18:43:20.406Z,1.60
2018-11-12T18:45:49.727Z,1.60
2018-11-12T18:48:19.255Z,1.60
2018-11-12T18:50:48.560Z,1.50
2018-11-12T18:53:17.899Z,1.40
2018-11-12T18:55:47.459Z,1.53
2018-11-12T18:58:16.995Z,2.03
2018-11-12T19:00:46.532Z,1.50
2018-11-12T19:03:16.096Z,1.45
2018-11-12T19:05:47.412Z,1.60
2018-11-12T19:08:16.800Z,1.23
2018-11-12T19:10:46.392Z,1.40
2018-11-12T19:13:15.829Z,1.47
2018-11-12T19:15:45.159Z,1.47
2018-11-12T19:18:14.695Z,1.30
2018-11-12T19:20:43.786Z,1.20
2018-11-12T19:23:13.103Z,1.40
2018-11-12T19:25:42.936Z,1.30
2018-11-12T19:28:12.220Z,1.27
2018-11-12T19:30:41.550Z,1.10
2018-11-12T19:33:10.870Z,1.20
2018-11-12T19:35:40.207Z,1.10
2018-11-12T19:38:10.056Z,1.10
2018-11-12T19:40:39.183Z,1.55
2018-11-12T19:43:08.551Z,1.53
2018-11-12T19:45:39.193Z,1.30
2018-11-12T19:48:08.515Z,1.43
2018-11-12T19:50:37.926Z,1.40
2018-11-12T19:53:07.281Z,1.10
2018-11-12T19:55:36.839Z,1.30
2018-11-12T19:58:06.143Z,1.33
2018-11-12T20:00:35.464Z,1.37
2018-11-12T20:03:04.915Z,1.10
2018-11-12T20:05:34.205Z,1.17
2018-11-12T20:08:03.512Z,1.03
2018-11-12T20:10:33.031Z,1.10
2018-11-12T20:13:02.368Z,1.27
2018-11-12T20:15:32.789Z,1.20
2018-11-12T20:18:02.463Z,0.90
2018-11-12T20:20:33.013Z,1.53
2018-11-12T20:23:02.344Z,2.40
2018-11-12T20:25:31.679Z,1.90
2018-11-12T20:28:01.419Z,3.47
2018-11-12T20:30:33.652Z,3.40
2018-11-12T20:33:03.386Z,3.93
2018-11-12T20:35:32.712Z,5.27
2018-11-12T20:38:02.052Z,4.80
2018-11-12T20:40:31.609Z,4.77
2018-11-12T20:43:01.150Z,5.20
2018-11-12T20:45:30.995Z,6.40
2018-11-12T20:48:00.387Z,6.03
2018-11-12T20:50:30.240Z,6.87
2018-11-12T20:52:59.548Z,6.60
2018-11-12T20:55:28.918Z,6.83
2018-11-12T20:57:58.800Z,7.13
2018-11-12T21:00:29.084Z,9.37
2018-11-12T21:02:58.674Z,7.40
2018-11-12T21:05:29.514Z,7.70
2018-11-12T21:07:59.068Z,7.77
2018-11-12T21:10:28.955Z,8.57
2018-11-12T21:12:58.743Z,8.53
2018-11-12T21:15:28.017Z,9.30
2018-11-12T21:17:57.414Z,8.20
2018-11-12T21:20:27.281Z,8.30
2018-11-12T21:22:56.746Z,9.40
2018-11-12T21:25:26.850Z,8.67
2018-11-12T21:27:56.214Z,8.27
2018-11-12T21:30:27.743Z,8.33
2018-11-12T21:32:57.675Z,9.28
2018-11-12T21:35:26.767Z,9.40
2018-11-12T21:37:56.988Z,8.27
2018-11-12T21:40:28.009Z,9.40
2018-11-12T21:42:57.931Z,8.50
2018-11-12T21:45:29.072Z,8.13
2018-11-12T21:47:59.001Z,8.33
2018-11-12T21:50:28.304Z,9.50
2018-11-12T21:52:57.619Z,8.67
2018-11-12T21:55:27.194Z,8.60
2018-11-12T21:57:57.317Z,9.13
2018-11-12T22:00:27.470Z,8.10
2018-11-12T22:02:58.914Z,8.08
2018-11-12T22:05:28.981Z,8.10
2018-11-12T22:07:58.627Z,7.63
2018-11-12T22:10:28.171Z,7.50
2018-11-12T22:12:58.058Z,7.63
2018-11-12T22:15:27.335Z,8.10
2018-11-12T22:17:56.448Z,6.93
2018-11-12T22:20:27.076Z,7.70
2018-11-12T22:22:56.181Z,8.73
2018-11-12T22:25:25.543Z,8.20
2018-11-12T22:27:55.009Z,7.30
2018-11-12T22:30:26.136Z,7.33
2018-11-12T22:32:55.799Z,5.53
2018-11-12T22:35:25.121Z,6.72
2018-11-12T22:37:54.207Z,8.43
2018-11-12T22:40:23.649Z,7.00
2018-11-12T22:42:53.249Z,7.53
2018-11-12T22:45:23.970Z,8.57
2018-11-12T22:47:53.707Z,7.42
2018-11-12T22:50:22.801Z,7.00
2018-11-12T22:52:52.143Z,6.87
2018-11-12T22:55:21.663Z,5.80
2018-11-12T22:57:51.043Z,7.90
2018-11-12T23:00:27.616Z,7.07
2018-11-12T23:02:57.728Z,7.20
2018-11-12T23:05:27.497Z,6.72
2018-11-12T23:07:56.820Z,6.57
2018-11-12T23:10:26.133Z,6.47
2018-11-12T23:12:55.994Z,6.20
2018-11-12T23:15:25.349Z,6.40
2018-11-12T23:17:54.663Z,6.75
2018-11-12T23:20:25.220Z,7.03
2018-11-12T23:22:54.831Z,7.40
2018-11-12T23:25:24.127Z,6.80
2018-11-12T23:27:54.177Z,7.30
2018-11-12T23:30:24.384Z,6.07
2018-11-12T23:32:53.503Z,6.37
2018-11-12T23:35:24.106Z,6.23
2018-11-12T23:37:53.430Z,5.87
2018-11-12T23:40:22.533Z,6.80
2018-11-12T23:42:51.869Z,6.60
2018-11-12T23:45:21.695Z,5.43
2018-11-12T23:47:51.042Z,6.20
2018-11-12T23:50:21.744Z,6.27
2018-11-12T23:52:52.258Z,6.40
2018-11-12T23:55:21.920Z,5.30
2018-11-12T23:57:51.620Z,5.53
